createdAt,value
2022-11-06T00:00:17.782Z,10.04
2022-11-06T00:01:16.434Z,10.02
2022-11-06T00:02:21.111Z,10.02
2022-11-06T00:03:15.952Z,10.01
2022-11-06T00:04:15.336Z,10.02
2022-11-06T00:05:16.194Z,10.01
2022-11-06T00:06:16.494Z,10.00
2022-11-06T00:07:16.386Z,10.02
2022-11-06T00:08:16.562Z,10.01
2022-11-06T00:09:16.375Z,10.01
2022-11-06T00:10:16.047Z,10.03
2022-11-06T00:11:15.981Z,10.02
2022-11-06T00:12:16.420Z,10.01
2022-11-06T00:13:17.049Z,10.01
2022-11-06T00:14:16.126Z,10.01
2022-11-06T00:15:16.650Z,10.02
2022-11-06T00:17:16.892Z,9.998
2022-11-06T00:18:17.561Z,9.998
2022-11-06T00:19:16.649Z,9.997
2022-11-06T00:20:16.204Z,9.991
2022-11-06T00:21:16.525Z,10.00
2022-11-06T00:22:16.558Z,10
2022-11-06T00:23:16.556Z,10.00
2022-11-06T00:24:16.445Z,10.01
2022-11-06T00:25:16.519Z,10.00
2022-11-06T00:26:16.141Z,10.00
2022-11-06T00:27:16.356Z,9.989
2022-11-06T00:28:16.539Z,9.979
2022-11-06T00:29:16.551Z,9.978
2022-11-06T00:30:16.471Z,9.966
2022-11-06T00:31:16.502Z,9.971
2022-11-06T00:32:16.132Z,9.965
2022-11-06T00:33:15.193Z,9.983
2022-11-06T00:34:15.821Z,9.965
2022-11-06T00:35:16.554Z,9.956
2022-11-06T00:36:16.464Z,9.953
2022-11-06T00:37:16.199Z,9.960
2022-11-06T00:38:16.349Z,9.943
2022-11-06T00:39:16.216Z,9.951
2022-11-06T00:40:16.189Z,9.968
2022-11-06T00:41:15.580Z,9.971
2022-11-06T00:42:16.064Z,9.963
2022-11-06T00:43:15.618Z,9.949
2022-11-06T00:44:16.285Z,9.943
2022-11-06T00:45:16.117Z,9.943
2022-11-06T00:46:15.644Z,9.938
2022-11-06T00:47:16.261Z,9.936
2022-11-06T00:48:16.315Z,9.918
2022-11-06T00:49:15.761Z,9.890
2022-11-06T00:50:16.728Z,9.911
2022-11-06T00:51:16.464Z,9.909
2022-11-06T00:52:16.312Z,9.943
2022-11-06T00:53:16.033Z,9.933
2022-11-06T00:54:15.738Z,9.943
2022-11-06T00:55:16.593Z,9.938
2022-11-06T00:56:16.244Z,9.923
2022-11-06T00:57:16.039Z,9.939
2022-11-06T00:58:15.985Z,9.930
2022-11-06T00:59:15.570Z,9.931
2022-11-06T01:00:18.054Z,9.930
2022-11-06T01:01:18.218Z,9.914
2022-11-06T01:02:16.857Z,9.911
2022-11-06T01:03:17.585Z,9.890
2022-11-06T01:04:16.747Z,9.859
2022-11-06T01:05:17.096Z,9.843
2022-11-06T01:06:15.994Z,9.868
2022-11-06T01:07:16.249Z,9.878
2022-11-06T01:08:16.542Z,9.888
2022-11-06T01:09:16.374Z,9.901
2022-11-06T01:10:16.297Z,9.891
2022-11-06T01:11:15.937Z,9.891
2022-11-06T01:12:19.828Z,9.904
2022-11-06T01:13:16.678Z,9.895
2022-11-06T01:14:16.672Z,9.895
2022-11-06T01:15:16.834Z,9.901
2022-11-06T01:16:16.679Z,9.864
2022-11-06T01:17:16.709Z,9.858
2022-11-06T01:18:17.154Z,9.853
2022-11-06T01:19:15.962Z,9.864
2022-11-06T01:20:16.700Z,9.890
2022-11-06T01:21:16.643Z,9.901
2022-11-06T01:22:16.022Z,9.891
2022-11-06T01:23:15.854Z,9.876
2022-11-06T01:24:16.736Z,9.881
2022-11-06T01:25:17.318Z,9.875
2022-11-06T01:26:28.795Z,9.866
2022-11-06T01:27:33.437Z,9.859
2022-11-06T01:28:16.894Z,9.859
2022-11-06T01:29:16.418Z,9.863
2022-11-06T01:30:16.222Z,9.859
2022-11-06T01:31:16.058Z,9.842
2022-11-06T01:32:16.021Z,9.831
2022-11-06T01:33:15.886Z,9.834
2022-11-06T01:34:16.563Z,9.845
2022-11-06T01:35:16.343Z,9.819
2022-11-06T01:36:16.078Z,9.819
2022-11-06T01:37:19.990Z,9.815
2022-11-06T01:38:15.962Z,9.810
2022-11-06T01:39:16.792Z,9.829
2022-11-06T01:40:16.549Z,9.829
2022-11-06T01:41:16.227Z,9.825
2022-11-06T01:42:16.123Z,9.807
2022-11-06T01:43:15.690Z,9.810
2022-11-06T01:44:16.209Z,9.802
2022-11-06T01:45:16.108Z,9.814
2022-11-06T01:46:15.277Z,9.807
2022-11-06T01:47:15.811Z,9.805
2022-11-06T01:48:16.860Z,9.812
2022-11-06T01:49:16.584Z,9.825
2022-11-06T01:50:16.116Z,9.803
2022-11-06T01:51:23.926Z,9.821
2022-11-06T01:52:16.768Z,9.807
2022-11-06T01:53:16.378Z,9.801
2022-11-06T01:54:15.902Z,9.791
2022-11-06T01:55:16.738Z,9.784
2022-11-06T01:56:16.274Z,9.781
2022-11-06T01:57:15.971Z,9.784
2022-11-06T01:58:17.478Z,9.774
2022-11-06T01:59:15.979Z,9.774
2022-11-06T02:00:16.427Z,9.779
2022-11-06T02:01:16.008Z,9.773
2022-11-06T02:02:15.944Z,9.783
2022-11-06T02:03:16.862Z,9.768
2022-11-06T02:04:17.254Z,9.776
2022-11-06T02:05:16.163Z,9.776
2022-11-06T02:06:15.616Z,9.778
2022-11-06T02:07:16.347Z,9.778
2022-11-06T02:08:16.478Z,9.788
2022-11-06T02:09:16.646Z,9.791
2022-11-06T02:10:16.644Z,9.795
2022-11-06T02:11:16.472Z,9.788
2022-11-06T02:12:15.891Z,9.783
2022-11-06T02:13:16.516Z,9.784
2022-11-06T02:14:16.276Z,9.791
2022-11-06T02:15:16.613Z,9.793
2022-11-06T02:16:16.281Z,9.801
2022-11-06T02:17:35.268Z,9.781
2022-11-06T02:18:16.639Z,9.784
2022-11-06T02:19:16.458Z,9.783
2022-11-06T02:20:16.403Z,9.783
2022-11-06T02:21:16.107Z,9.798
2022-11-06T02:22:15.783Z,9.788
2022-11-06T02:23:16.595Z,9.765
2022-11-06T02:24:16.625Z,9.784
2022-11-06T02:25:16.814Z,9.774
2022-11-06T02:26:16.727Z,9.75
2022-11-06T02:27:16.438Z,9.761
2022-11-06T02:28:17.003Z,9.728
2022-11-06T02:29:15.747Z,9.736
2022-11-06T02:30:16.411Z,9.744
2022-11-06T02:31:15.994Z,9.739
2022-11-06T02:32:15.630Z,9.736
2022-11-06T02:33:16.384Z,9.741
2022-11-06T02:34:15.967Z,9.755
2022-11-06T02:35:17.458Z,9.774
2022-11-06T02:36:16.111Z,9.770
2022-11-06T02:37:15.834Z,9.75
2022-11-06T02:38:17.304Z,9.744
2022-11-06T02:39:15.948Z,9.755
2022-11-06T02:40:17.192Z,9.765
2022-11-06T02:41:16.260Z,9.761
2022-11-06T02:42:15.736Z,9.756
2022-11-06T02:43:16.427Z,9.738
2022-11-06T02:44:15.928Z,9.723
2022-11-06T02:45:16.717Z,9.725
2022-11-06T02:46:15.830Z,9.710
2022-11-06T02:47:16.637Z,9.723
2022-11-06T02:48:17.091Z,9.733
2022-11-06T02:49:15.941Z,9.720
2022-11-06T02:50:16.844Z,9.706
2022-11-06T02:51:16.876Z,9.703
2022-11-06T02:52:16.716Z,9.713
2022-11-06T02:53:16.512Z,9.720
2022-11-06T02:54:16.323Z,9.723
2022-11-06T02:55:16.355Z,9.731
2022-11-06T02:56:16.013Z,9.725
2022-11-06T02:57:15.836Z,9.729
2022-11-06T02:58:16.782Z,9.728
2022-11-06T02:59:16.586Z,9.743
2022-11-06T03:00:17.532Z,9.729
2022-11-06T03:01:16.040Z,9.728
2022-11-06T03:02:15.989Z,9.723
2022-11-06T03:03:15.823Z,9.738
2022-11-06T03:04:16.585Z,9.744
2022-11-06T03:05:16.514Z,9.733
2022-11-06T03:06:16.104Z,9.723
2022-11-06T03:07:15.730Z,9.720
2022-11-06T03:08:16.978Z,9.737
2022-11-06T03:09:16.223Z,9.731
2022-11-06T03:10:15.448Z,9.734
2022-11-06T03:11:16.031Z,9.712
2022-11-06T03:12:15.262Z,9.713
2022-11-06T03:13:15.928Z,9.702
2022-11-06T03:14:16.478Z,9.685
2022-11-06T03:15:16.262Z,9.677
2022-11-06T03:16:15.443Z,9.692
2022-11-06T03:17:16.048Z,9.717
2022-11-06T03:18:16.467Z,9.715
2022-11-06T03:19:16.609Z,9.710
2022-11-06T03:20:15.768Z,9.727
2022-11-06T03:21:16.182Z,9.724
2022-11-06T03:22:15.665Z,9.734
2022-11-06T03:23:16.459Z,9.729
2022-11-06T03:24:16.069Z,9.734
2022-11-06T03:25:15.750Z,9.734
2022-11-06T03:26:16.387Z,9.744
2022-11-06T03:27:16.036Z,9.751
2022-11-06T03:28:16.021Z,9.746
2022-11-06T03:29:15.995Z,9.75
2022-11-06T03:31:15.402Z,9.75
2022-11-06T03:32:15.895Z,9.739
2022-11-06T03:33:16.653Z,9.731
2022-11-06T03:34:16.069Z,9.746
2022-11-06T03:35:15.950Z,9.731
2022-11-06T03:36:16.833Z,9.723
2022-11-06T03:37:16.956Z,9.699
2022-11-06T03:38:17.155Z,9.699
2022-11-06T03:39:16.033Z,9.694
2022-11-06T03:40:15.863Z,9.680
2022-11-06T03:41:16.367Z,9.664
2022-11-06T03:42:15.661Z,9.670
2022-11-06T03:43:16.184Z,9.671
2022-11-06T03:44:15.449Z,9.638
2022-11-06T03:45:16.029Z,9.600
2022-11-06T03:46:15.265Z,9.613
2022-11-06T03:47:15.787Z,9.618
2022-11-06T03:48:16.976Z,9.635
2022-11-06T03:49:15.710Z,9.618
2022-11-06T03:50:16.203Z,9.630
2022-11-06T03:51:15.934Z,9.641
2022-11-06T03:52:16.080Z,9.649
2022-11-06T03:53:15.747Z,9.651
2022-11-06T03:54:15.925Z,9.630
2022-11-06T03:55:16.907Z,9.585
2022-11-06T03:56:16.582Z,9.571
2022-11-06T03:57:16.351Z,9.574
2022-11-06T03:58:16.727Z,9.581
2022-11-06T03:59:16.670Z,9.585
2022-11-06T04:00:17.323Z,9.579
2022-11-06T04:01:16.091Z,9.561
2022-11-06T04:02:16.057Z,9.555
2022-11-06T04:03:16.183Z,9.560
2022-11-06T04:04:15.529Z,9.553
2022-11-06T04:05:16.549Z,9.556
2022-11-06T04:06:21.154Z,9.553
2022-11-06T04:07:15.893Z,9.548
2022-11-06T04:08:16.983Z,9.556
2022-11-06T04:09:15.712Z,9.539
2022-11-06T04:10:16.117Z,9.543
2022-11-06T04:11:16.018Z,9.550
2022-11-06T04:12:15.939Z,9.551
2022-11-06T04:13:16.589Z,9.551
2022-11-06T04:14:16.469Z,9.558
2022-11-06T04:15:16.476Z,9.560
2022-11-06T04:16:16.046Z,9.566
2022-11-06T04:17:16.171Z,9.555
2022-11-06T04:18:16.312Z,9.543
2022-11-06T04:19:16.121Z,9.543
2022-11-06T04:20:15.899Z,9.539
2022-11-06T04:21:16.513Z,9.523
2022-11-06T04:22:16.288Z,9.513
2022-11-06T04:23:15.948Z,9.524
2022-11-06T04:24:16.214Z,9.539
2022-11-06T04:25:15.984Z,9.531
2022-11-06T04:26:15.812Z,9.513
2022-11-06T04:27:15.246Z,9.521
2022-11-06T04:28:16.292Z,9.531
2022-11-06T04:29:16.265Z,9.553
2022-11-06T04:30:30.279Z,9.586
2022-11-06T04:31:16.317Z,9.613
2022-11-06T04:32:15.892Z,9.645
2022-11-06T04:33:16.583Z,9.630
2022-11-06T04:34:16.256Z,9.633
2022-11-06T04:35:16.179Z,9.598
2022-11-06T04:36:15.884Z,9.637
2022-11-06T04:37:16.756Z,9.674
2022-11-06T04:38:17.119Z,9.694
2022-11-06T04:39:15.892Z,9.695
2022-11-06T04:40:16.614Z,9.697
2022-11-06T04:41:16.358Z,9.708
2022-11-06T04:42:15.914Z,9.692
2022-11-06T04:43:16.483Z,9.680
2022-11-06T04:44:16.172Z,9.657
2022-11-06T04:45:16.135Z,9.641
2022-11-06T04:46:15.876Z,9.630
2022-11-06T04:47:16.618Z,9.665
2022-11-06T04:48:16.938Z,9.678
2022-11-06T04:49:16.407Z,9.694
2022-11-06T04:50:16.273Z,9.696
2022-11-06T04:51:16.147Z,9.694
2022-11-06T04:52:15.830Z,9.708
2022-11-06T04:53:16.338Z,9.699
2022-11-06T04:54:16.190Z,9.701
2022-11-06T04:55:16.099Z,9.691
2022-11-06T04:56:20.106Z,9.680
2022-11-06T04:57:16.100Z,9.681
2022-11-06T04:58:16.664Z,9.697
2022-11-06T04:59:16.589Z,9.701
2022-11-06T05:00:17.616Z,9.710
2022-11-06T05:01:16.890Z,9.714
2022-11-06T05:02:17.076Z,9.715
2022-11-06T05:03:16.062Z,9.715
2022-11-06T05:04:15.992Z,9.718
2022-11-06T05:05:16.068Z,9.716
2022-11-06T05:06:16.490Z,9.711
2022-11-06T05:07:15.894Z,9.733
2022-11-06T05:08:17.077Z,9.723
2022-11-06T05:09:15.940Z,9.716
2022-11-06T05:10:16.615Z,9.713
2022-11-06T05:11:16.311Z,9.701
2022-11-06T05:12:15.689Z,9.710
2022-11-06T05:13:16.703Z,9.716
2022-11-06T05:14:16.447Z,9.721
2022-11-06T05:15:16.388Z,9.723
2022-11-06T05:16:16.144Z,9.704
2022-11-06T05:17:16.234Z,9.689
2022-11-06T05:18:16.845Z,9.721
2022-11-06T05:19:15.896Z,9.720
2022-11-06T05:20:16.742Z,9.715
2022-11-06T05:21:16.424Z,9.718
2022-11-06T05:22:16.116Z,9.720
2022-11-06T05:23:16.181Z,9.701
2022-11-06T05:24:15.872Z,9.683
2022-11-06T05:25:17.070Z,9.681
2022-11-06T05:26:16.024Z,9.688
2022-11-06T05:27:16.169Z,9.693
2022-11-06T05:28:16.627Z,9.688
2022-11-06T05:29:16.352Z,9.678
2022-11-06T05:30:16.828Z,9.678
2022-11-06T05:31:16.455Z,9.686
2022-11-06T05:32:16.257Z,9.699
2022-11-06T05:33:16.288Z,9.693
2022-11-06T05:34:15.994Z,9.685
2022-11-06T05:35:15.935Z,9.696
2022-11-06T05:36:16.810Z,9.699
2022-11-06T05:37:16.582Z,9.699
2022-11-06T05:38:16.970Z,9.698
2022-11-06T05:39:16.489Z,9.683
2022-11-06T05:40:15.996Z,9.678
2022-11-06T05:41:16.053Z,9.671
2022-11-06T05:42:15.914Z,9.670
2022-11-06T05:43:16.515Z,9.659
2022-11-06T05:44:16.603Z,9.663
2022-11-06T05:45:16.771Z,9.666
2022-11-06T05:46:52.084Z,9.648
2022-11-06T05:47:16.066Z,9.648
2022-11-06T05:48:16.663Z,9.643
2022-11-06T05:49:16.488Z,9.664
2022-11-06T05:50:16.189Z,9.670
2022-11-06T05:51:16.190Z,9.663
2022-11-06T05:52:15.638Z,9.673
2022-11-06T05:53:16.702Z,9.681
2022-11-06T05:54:16.364Z,9.658
2022-11-06T05:55:20.774Z,9.663
2022-11-06T05:56:16.421Z,9.678
2022-11-06T05:57:16.339Z,9.670
2022-11-06T05:58:16.795Z,9.670
2022-11-06T05:59:16.432Z,9.651
2022-11-06T06:00:16.765Z,9.645
2022-11-06T06:01:16.225Z,9.646
2022-11-06T06:02:15.855Z,9.618
2022-11-06T06:03:16.934Z,9.625
2022-11-06T06:04:16.098Z,9.633
2022-11-06T06:05:16.224Z,9.645
2022-11-06T06:06:15.511Z,9.619
2022-11-06T06:07:16.713Z,9.611
2022-11-06T06:08:17.350Z,9.621
2022-11-06T06:09:16.283Z,9.633
2022-11-06T06:10:15.914Z,9.641
2022-11-06T06:11:17.026Z,9.653
2022-11-06T06:12:15.837Z,9.635
2022-11-06T06:13:16.436Z,9.658
2022-11-06T06:14:16.155Z,9.673
2022-11-06T06:15:15.934Z,9.678
2022-11-06T06:16:16.388Z,9.685
2022-11-06T06:17:16.136Z,9.668
2022-11-06T06:18:16.403Z,9.678
2022-11-06T06:19:16.023Z,9.689
2022-11-06T06:20:16.103Z,9.701
2022-11-06T06:21:15.781Z,9.680
2022-11-06T06:22:16.226Z,9.687
2022-11-06T06:23:15.818Z,9.685
2022-11-06T06:24:16.593Z,9.661
2022-11-06T06:25:28.374Z,9.595
2022-11-06T06:26:15.835Z,9.595
2022-11-06T06:27:16.863Z,9.594
2022-11-06T06:28:17.067Z,9.595
2022-11-06T06:29:15.647Z,9.617
2022-11-06T06:30:16.673Z,9.637
2022-11-06T06:31:16.412Z,9.631
2022-11-06T06:32:15.841Z,9.619
2022-11-06T06:33:16.632Z,9.619
2022-11-06T06:34:15.965Z,9.616
2022-11-06T06:35:16.720Z,9.614
2022-11-06T06:36:16.431Z,9.619
2022-11-06T06:37:19.958Z,9.595
2022-11-06T06:38:16.119Z,9.590
2022-11-06T06:39:16.557Z,9.585
2022-11-06T06:40:15.916Z,9.553
2022-11-06T06:41:16.830Z,9.526
2022-11-06T06:42:16.453Z,9.555
2022-11-06T06:43:16.368Z,9.581
2022-11-06T06:44:15.979Z,9.606
2022-11-06T06:45:17.031Z,9.614
2022-11-06T06:46:15.965Z,9.618
2022-11-06T06:47:17.087Z,9.601
2022-11-06T06:48:16.946Z,9.609
2022-11-06T06:49:15.961Z,9.613
2022-11-06T06:50:16.864Z,9.608
2022-11-06T06:51:22.620Z,9.638
2022-11-06T06:52:16.895Z,9.648
2022-11-06T06:53:16.779Z,9.649
2022-11-06T06:54:16.410Z,9.658
2022-11-06T06:55:16.703Z,9.649
2022-11-06T06:56:16.600Z,9.641
2022-11-06T06:57:16.508Z,9.648
2022-11-06T06:59:17.361Z,9.701
2022-11-06T07:00:17.119Z,9.701
2022-11-06T07:01:15.859Z,9.716
2022-11-06T07:02:16.419Z,9.701
2022-11-06T07:03:16.368Z,9.711
2022-11-06T07:04:15.405Z,9.723
2022-11-06T07:05:16.066Z,9.718
2022-11-06T07:06:15.683Z,9.738
2022-11-06T07:07:43.881Z,9.761
2022-11-06T07:08:17.121Z,9.761
2022-11-06T07:09:15.802Z,9.774
2022-11-06T07:10:16.060Z,9.783
2022-11-06T07:11:15.596Z,9.761
2022-11-06T07:12:16.091Z,9.760
2022-11-06T07:13:16.578Z,9.739
2022-11-06T07:14:16.004Z,9.761
2022-11-06T07:15:15.790Z,9.786
2022-11-06T07:16:16.397Z,9.796
2022-11-06T07:17:16.079Z,9.805
2022-11-06T07:18:16.514Z,9.814
2022-11-06T07:19:16.615Z,9.819
2022-11-06T07:20:16.240Z,9.816
2022-11-06T07:21:16.237Z,9.818
2022-11-06T07:22:16.282Z,9.835
2022-11-06T07:23:16.167Z,9.848
2022-11-06T07:24:16.064Z,9.859
2022-11-06T07:25:16.069Z,9.868
2022-11-06T07:26:16.263Z,9.866
2022-11-06T07:27:16.604Z,9.871
2022-11-06T07:28:16.037Z,9.869
2022-11-06T07:29:15.725Z,9.845
2022-11-06T07:30:16.328Z,9.835
2022-11-06T07:31:15.788Z,9.866
2022-11-06T07:32:16.070Z,9.863
2022-11-06T07:33:15.851Z,9.864
2022-11-06T07:34:16.294Z,9.880
2022-11-06T07:35:15.949Z,9.895
2022-11-06T07:36:16.269Z,9.914
2022-11-06T07:37:15.887Z,9.918
2022-11-06T07:38:17.067Z,9.944
2022-11-06T07:39:16.094Z,9.949
2022-11-06T07:40:15.836Z,9.976
2022-11-06T07:41:16.327Z,9.989
2022-11-06T07:42:16.100Z,9.984
2022-11-06T07:43:15.760Z,9.981
2022-11-06T07:44:16.129Z,10.00
2022-11-06T07:45:16.098Z,10.02
2022-11-06T07:46:15.374Z,10.04
2022-11-06T07:47:16.047Z,10.03
2022-11-06T07:48:15.958Z,10.05
2022-11-06T07:49:16.065Z,10.06
2022-11-06T07:50:15.683Z,10.07
2022-11-06T07:51:16.492Z,10.06
2022-11-06T07:52:16.113Z,10.06
2022-11-06T07:53:16.222Z,10.06
2022-11-06T07:54:15.926Z,10.07
2022-11-06T07:55:16.659Z,10.10
2022-11-06T07:56:16.245Z,10.11
2022-11-06T07:57:16.156Z,10.12
2022-11-06T07:58:15.707Z,10.12
2022-11-06T07:59:15.914Z,10.10
2022-11-06T08:00:17.699Z,10.09
2022-11-06T08:01:23.507Z,10.07
2022-11-06T08:02:16.578Z,10.07
2022-11-06T08:03:16.362Z,10.08
2022-11-06T08:04:15.418Z,10.07
2022-11-06T08:05:16.373Z,10.09
2022-11-06T08:06:15.762Z,10.12
2022-11-06T08:07:16.409Z,10.13
2022-11-06T08:08:16.283Z,10.08
2022-11-06T08:09:16.056Z,10.08
2022-11-06T08:10:15.261Z,10.10
2022-11-06T08:11:15.764Z,10.12
2022-11-06T08:12:16.417Z,10.15
2022-11-06T08:13:16.202Z,10.16
2022-11-06T08:14:15.461Z,10.17
2022-11-06T08:15:16.350Z,10.17
2022-11-06T08:16:15.884Z,10.16
2022-11-06T08:17:16.932Z,10.15
2022-11-06T08:18:17.410Z,10.16
2022-11-06T08:19:16.290Z,10.16
2022-11-06T08:20:16.073Z,10.17
2022-11-06T08:21:16.197Z,10.17
2022-11-06T08:22:16.066Z,10.17
2022-11-06T08:23:15.808Z,10.20
2022-11-06T08:24:21.561Z,10.21
2022-11-06T08:25:15.994Z,10.22
2022-11-06T08:26:15.759Z,10.26
2022-11-06T08:27:16.357Z,10.28
2022-11-06T08:28:16.708Z,10.28
2022-11-06T08:29:16.497Z,10.26
2022-11-06T08:30:16.357Z,10.28
2022-11-06T08:31:16.061Z,10.31
2022-11-06T08:32:15.817Z,10.31
2022-11-06T08:33:16.560Z,10.30
2022-11-06T08:34:15.743Z,10.27
2022-11-06T08:35:16.439Z,10.30
2022-11-06T08:36:15.565Z,10.29
2022-11-06T08:37:16.446Z,10.36
2022-11-06T08:38:16.631Z,10.39
2022-11-06T08:39:16.613Z,10.40
2022-11-06T08:40:16.382Z,10.40
2022-11-06T08:41:16.007Z,10.40
2022-11-06T08:42:15.433Z,10.40
2022-11-06T08:43:17.091Z,10.38
2022-11-06T08:44:16.029Z,10.38
2022-11-06T08:45:16.083Z,10.38
2022-11-06T08:46:15.594Z,10.37
2022-11-06T08:47:16.068Z,10.38
2022-11-06T08:49:16.606Z,10.43
2022-11-06T08:50:16.335Z,10.43
2022-11-06T08:51:15.988Z,10.40
2022-11-06T08:52:15.926Z,10.38
2022-11-06T08:53:18.297Z,10.34
2022-11-06T08:54:16.510Z,10.36
2022-11-06T08:55:16.171Z,10.36
2022-11-06T08:56:15.868Z,10.36
2022-11-06T08:57:16.824Z,10.36
2022-11-06T08:58:16.397Z,10.39
2022-11-06T08:59:16.070Z,10.39
2022-11-06T09:00:16.576Z,10.42
2022-11-06T09:01:16.785Z,10.42
2022-11-06T09:02:16.451Z,10.45
2022-11-06T09:03:17.274Z,10.47
2022-11-06T09:04:15.968Z,10.51
2022-11-06T09:05:16.657Z,10.52
2022-11-06T09:06:16.129Z,10.51
2022-11-06T09:07:15.709Z,10.51
2022-11-06T09:08:30.388Z,10.54
2022-11-06T09:09:16.017Z,10.54
2022-11-06T09:10:15.953Z,10.57
2022-11-06T09:11:16.744Z,10.55
2022-11-06T09:12:16.382Z,10.55
2022-11-06T09:13:16.679Z,10.56
2022-11-06T09:14:16.100Z,10.57
2022-11-06T09:15:16.035Z,10.56
2022-11-06T09:16:21.805Z,10.55
2022-11-06T09:17:16.374Z,10.54
2022-11-06T09:18:15.950Z,10.56
2022-11-06T09:19:16.521Z,10.56
2022-11-06T09:20:16.039Z,10.58
2022-11-06T09:21:15.888Z,10.59
2022-11-06T09:22:16.333Z,10.58
2022-11-06T09:23:17.466Z,10.57
2022-11-06T09:24:16.228Z,10.59
2022-11-06T09:25:15.820Z,10.62
2022-11-06T09:26:16.360Z,10.67
2022-11-06T09:27:16.065Z,10.67
2022-11-06T09:28:15.645Z,10.69
2022-11-06T09:29:16.327Z,10.73
2022-11-06T09:30:16.022Z,10.74
2022-11-06T09:31:15.241Z,10.74
2022-11-06T09:32:15.398Z,10.74
2022-11-06T09:33:20.531Z,10.76
2022-11-06T09:34:16.059Z,10.77
2022-11-06T09:35:15.774Z,10.78
2022-11-06T09:36:16.480Z,10.81
2022-11-06T09:37:16.409Z,10.85
2022-11-06T09:38:15.822Z,10.90
2022-11-06T09:39:16.760Z,10.90
2022-11-06T09:40:16.003Z,10.91
2022-11-06T09:41:15.617Z,10.88
2022-11-06T09:42:15.947Z,10.88
2022-11-06T09:43:23.633Z,10.86
2022-11-06T09:44:15.388Z,10.84
2022-11-06T09:45:16.187Z,10.82
2022-11-06T09:46:15.722Z,10.84
2022-11-06T09:47:16.122Z,10.88
2022-11-06T09:48:15.222Z,10.85
2022-11-06T09:49:15.782Z,10.83
2022-11-06T09:50:16.268Z,10.82
2022-11-06T09:51:16.287Z,10.82
2022-11-06T09:52:15.905Z,10.86
2022-11-06T09:53:17.034Z,10.88
2022-11-06T09:54:16.531Z,10.89
2022-11-06T09:55:16.623Z,10.88
2022-11-06T09:56:16.105Z,10.90
2022-11-06T09:57:15.756Z,10.93
2022-11-06T09:58:49.156Z,10.99
2022-11-06T09:59:14.377Z,10.99
2022-11-06T10:00:49.193Z,11.01
2022-11-06T10:01:24.550Z,11.01
2022-11-06T10:02:16.375Z,11.01
2022-11-06T10:03:16.756Z,11.01
2022-11-06T10:04:16.410Z,11.04
2022-11-06T10:05:16.160Z,11.05
2022-11-06T10:06:15.635Z,11.07
2022-11-06T10:07:16.668Z,11.10
2022-11-06T10:08:16.722Z,11.14
2022-11-06T10:09:16.838Z,11.20
2022-11-06T10:10:16.313Z,11.30
2022-11-06T10:11:16.357Z,11.34
2022-11-06T10:12:16.029Z,11.34
2022-11-06T10:13:22.836Z,11.32
2022-11-06T10:14:16.548Z,11.32
2022-11-06T10:15:16.619Z,11.31
2022-11-06T10:16:16.082Z,11.30
2022-11-06T10:17:15.860Z,11.30
2022-11-06T10:18:17.249Z,11.29
2022-11-06T10:19:16.287Z,11.29
2022-11-06T10:20:16.018Z,11.30
2022-11-06T10:21:15.759Z,11.32
2022-11-06T10:22:16.308Z,11.34
2022-11-06T10:23:15.935Z,11.34
2022-11-06T10:24:16.339Z,11.34
2022-11-06T10:25:16.427Z,11.39
2022-11-06T10:26:16.187Z,11.42
2022-11-06T10:27:16.131Z,11.49
2022-11-06T10:28:15.944Z,11.54
2022-11-06T10:29:15.857Z,11.58
2022-11-06T10:30:16.707Z,11.57
2022-11-06T10:31:16.246Z,11.57
2022-11-06T10:32:15.966Z,11.60
2022-11-06T10:33:16.776Z,11.56
2022-11-06T10:34:16.525Z,11.53
2022-11-06T10:35:16.677Z,11.53
2022-11-06T10:36:16.457Z,11.53
2022-11-06T10:37:16.369Z,11.53
2022-11-06T10:38:16.877Z,11.55
2022-11-06T10:39:16.094Z,11.59
2022-11-06T10:40:15.863Z,11.62
2022-11-06T10:41:16.572Z,11.61
2022-11-06T10:42:16.142Z,11.59
2022-11-06T10:43:16.651Z,11.60
2022-11-06T10:44:15.981Z,11.63
2022-11-06T10:45:16.951Z,11.65
2022-11-06T10:46:16.552Z,11.67
2022-11-06T10:47:16.639Z,11.71
2022-11-06T10:48:17.714Z,11.75
2022-11-06T10:49:16.581Z,11.78
2022-11-06T10:50:16.211Z,11.77
2022-11-06T10:51:16.115Z,11.73
2022-11-06T10:52:16.103Z,11.72
2022-11-06T10:53:15.927Z,11.69
2022-11-06T10:54:16.463Z,11.71
2022-11-06T10:55:15.983Z,11.73
2022-11-06T10:56:21.097Z,11.72
2022-11-06T10:57:16.150Z,11.72
2022-11-06T10:58:16.183Z,11.72
2022-11-06T10:59:16.226Z,11.74
2022-11-06T11:00:17.029Z,11.76
2022-11-06T11:01:16.228Z,11.76
2022-11-06T11:02:16.210Z,11.76
2022-11-06T11:03:16.581Z,11.77
2022-11-06T11:04:16.776Z,11.77
2022-11-06T11:05:16.800Z,11.79
2022-11-06T11:06:16.255Z,11.77
2022-11-06T11:07:21.322Z,11.79
2022-11-06T11:08:16.987Z,11.79
2022-11-06T11:09:16.021Z,11.80
2022-11-06T11:10:15.481Z,11.81
2022-11-06T11:11:16.470Z,11.79
2022-11-06T11:12:16.248Z,11.78
2022-11-06T11:13:16.290Z,11.73
2022-11-06T11:14:16.244Z,11.72
2022-11-06T11:15:16.567Z,11.71
2022-11-06T11:16:16.604Z,11.74
2022-11-06T11:17:16.966Z,11.75
2022-11-06T11:18:17.751Z,11.73
2022-11-06T11:19:15.876Z,11.73
2022-11-06T11:20:16.252Z,11.72
2022-11-06T11:21:16.118Z,11.72
2022-11-06T11:22:15.571Z,11.74
2022-11-06T11:23:17.094Z,11.76
2022-11-06T11:24:15.733Z,11.80
2022-11-06T11:25:16.954Z,11.80
2022-11-06T11:26:16.409Z,11.79
2022-11-06T11:27:16.192Z,11.79
2022-11-06T11:28:16.196Z,11.81
2022-11-06T11:29:16.415Z,11.88
2022-11-06T11:30:16.502Z,11.87
2022-11-06T11:31:16.616Z,11.87
2022-11-06T11:32:16.154Z,11.87
2022-11-06T11:33:16.107Z,11.88
2022-11-06T11:34:16.092Z,11.90
2022-11-06T11:35:16.122Z,11.95
2022-11-06T11:36:15.679Z,11.99
2022-11-06T11:37:16.624Z,12.05
2022-11-06T11:38:17.089Z,12.06
2022-11-06T11:39:16.849Z,12.09
2022-11-06T11:40:19.566Z,12.15
2022-11-06T11:41:16.601Z,12.18
2022-11-06T11:42:16.336Z,12.22
2022-11-06T11:43:16.505Z,12.25
2022-11-06T11:44:16.427Z,12.27
2022-11-06T11:45:16.524Z,12.29
2022-11-06T11:46:16.571Z,12.33
2022-11-06T11:47:16.570Z,12.35
2022-11-06T11:48:17.306Z,12.38
2022-11-06T11:49:16.553Z,12.40
2022-11-06T11:50:16.074Z,12.38
2022-11-06T11:51:16.378Z,12.38
2022-11-06T11:52:16.119Z,12.38
2022-11-06T11:53:16.777Z,12.38
2022-11-06T11:54:16.374Z,12.37
2022-11-06T11:55:16.367Z,12.38
2022-11-06T11:56:22.858Z,12.40
2022-11-06T11:57:16.264Z,12.37
2022-11-06T11:58:16.605Z,12.35
2022-11-06T11:59:16.549Z,12.38
2022-11-06T12:00:17.160Z,12.39
2022-11-06T12:01:16.834Z,12.40
2022-11-06T12:02:19.806Z,12.38
2022-11-06T12:03:16.152Z,12.37
2022-11-06T12:04:16.010Z,12.36
2022-11-06T12:05:37.872Z,12.39
2022-11-06T12:06:16.449Z,12.38
2022-11-06T12:07:43.405Z,12.38
2022-11-06T12:08:17.509Z,12.38
2022-11-06T12:09:16.817Z,12.39
2022-11-06T12:10:16.445Z,12.39
2022-11-06T12:11:16.268Z,12.40
2022-11-06T12:12:15.801Z,12.40
2022-11-06T12:13:16.556Z,12.45
2022-11-06T12:14:16.726Z,12.47
2022-11-06T12:15:17.223Z,12.46
2022-11-06T12:16:15.360Z,12.47
2022-11-06T12:17:16.460Z,12.48
2022-11-06T12:18:16.603Z,12.48
2022-11-06T12:19:16.827Z,12.52
2022-11-06T12:20:17.069Z,12.52
2022-11-06T12:21:15.647Z,12.56
2022-11-06T12:22:16.539Z,12.57
2022-11-06T12:23:16.780Z,12.56
2022-11-06T12:24:16.627Z,12.54
2022-11-06T12:25:16.534Z,12.56
2022-11-06T12:26:16.453Z,12.55
2022-11-06T12:27:15.929Z,12.56
2022-11-06T12:28:17.051Z,12.53
2022-11-06T12:29:15.741Z,12.51
2022-11-06T12:30:17.081Z,12.52
2022-11-06T12:31:15.617Z,12.51
2022-11-06T12:32:16.814Z,12.49
2022-11-06T12:33:16.569Z,12.49
2022-11-06T12:35:15.839Z,12.46
2022-11-06T12:36:16.812Z,12.46
2022-11-06T12:37:16.812Z,12.44
2022-11-06T12:38:17.439Z,12.43
2022-11-06T12:39:16.645Z,12.41
2022-11-06T12:40:18.485Z,12.38
2022-11-06T12:41:15.906Z,12.38
2022-11-06T12:42:16.886Z,12.41
2022-11-06T12:43:16.797Z,12.44
2022-11-06T12:44:16.505Z,12.43
2022-11-06T12:45:16.600Z,12.42
2022-11-06T12:46:16.310Z,12.43
2022-11-06T12:48:15.792Z,12.42
2022-11-06T12:49:15.787Z,12.42
2022-11-06T12:50:16.401Z,12.40
2022-11-06T12:51:16.112Z,12.40
2022-11-06T12:52:15.585Z,12.39
2022-11-06T12:53:16.474Z,12.40
2022-11-06T12:54:15.892Z,12.40
2022-11-06T12:55:17.183Z,12.40
2022-11-06T12:56:16.299Z,12.43
2022-11-06T12:57:16.122Z,12.44
2022-11-06T12:58:16.610Z,12.45